sensor_id;sensor_type;location;lat;lon;timestamp;pressure;altitude;pressure_sealevel;temperature;humidity
77431;BME280;66498;48.564;19.272;2023-07-31T00:00:27;97321.78;;;13.33;100.00
77431;BME280;66498;48.564;19.272;2023-07-31T00:02:54;97320.38;;;13.25;100.00
77431;BME280;66498;48.564;19.272;2023-07-31T00:05:20;97316.56;;;13.21;100.00
77431;BME280;66498;48.564;19.272;2023-07-31T00:07:45;97316.28;;;13.00;100.00
77431;BME280;66498;48.564;19.272;2023-07-31T00:10:11;97310.44;;;13.76;100.00
77431;BME280;66498;48.564;19.272;2023-07-31T00:12:38;97309.03;;;13.46;100.00
77431;BME280;66498;48.564;19.272;2023-07-31T00:15:04;97311.78;;;13.79;98.34
77431;BME280;66498;48.564;19.272;2023-07-31T00:17:30;97307.50;;;13.51;100.00
77431;BME280;66498;48.564;19.272;2023-07-31T00:19:55;97309.31;;;13.72;99.55
77431;BME280;66498;48.564;19.272;2023-07-31T00:22:21;97307.09;;;13.59;99.65
77431;BME280;66498;48.564;19.272;2023-07-31T00:24:46;97313.72;;;13.22;100.00
77431;BME280;66498;48.564;19.272;2023-07-31T00:27:12;97313.31;;;13.31;100.00
77431;BME280;66498;48.564;19.272;2023-07-31T00:29:37;97308.38;;;13.56;99.90
77431;BME280;66498;48.564;19.272;2023-07-31T00:32:03;97316.16;;;13.46;99.89
77431;BME280;66498;48.564;19.272;2023-07-31T00:34:29;97325.38;;;13.27;100.00
77431;BME280;66498;48.564;19.272;2023-07-31T00:36:55;97313.75;;;13.06;100.00
77431;BME280;66498;48.564;19.272;2023-07-31T00:39:20;97318.41;;;13.20;100.00
77431;BME280;66498;48.564;19.272;2023-07-31T00:41:45;97316.25;;;13.17;100.00
77431;BME280;66498;48.564;19.272;2023-07-31T00:44:11;97317.78;;;13.13;99.48
77431;BME280;66498;48.564;19.272;2023-07-31T00:46:36;97315.91;;;13.09;100.00
77431;BME280;66498;48.564;19.272;2023-07-31T00:49:02;97316.44;;;13.28;99.89
77431;BME280;66498;48.564;19.272;2023-07-31T00:51:28;97316.84;;;13.19;100.00
77431;BME280;66498;48.564;19.272;2023-07-31T00:53:54;97319.56;;;13.24;100.00
77431;BME280;66498;48.564;19.272;2023-07-31T00:56:21;97318.44;;;13.03;100.00
77431;BME280;66498;48.564;19.272;2023-07-31T00:58:47;97321.56;;;13.00;100.00
77431;BME280;66498;48.564;19.272;2023-07-31T01:01:13;97313.25;;;13.47;95.65
77431;BME280;66498;48.564;19.272;2023-07-31T01:03:38;97312.66;;;13.40;96.85
77431;BME280;66498;48.564;19.272;2023-07-31T01:06:13;97308.81;;;12.92;100.00
77431;BME280;66498;48.564;19.272;2023-07-31T01:11:29;97317.94;;;12.85;100.00
77431;BME280;66498;48.564;19.272;2023-07-31T01:13:55;97317.09;;;12.34;100.00
77431;BME280;66498;48.564;19.272;2023-07-31T01:16:22;97314.19;;;12.81;100.00
77431;BME280;66498;48.564;19.272;2023-07-31T01:18:47;97325.25;;;12.99;99.91
77431;BME280;66498;48.564;19.272;2023-07-31T01:24:15;97321.47;;;13.12;100.00
77431;BME280;66498;48.564;19.272;2023-07-31T01:26:47;97316.22;;;12.95;100.00
77431;BME280;66498;48.564;19.272;2023-07-31T01:29:33;97319.84;;;12.72;100.00
77431;BME280;66498;48.564;19.272;2023-07-31T01:32:02;97304.03;;;12.55;100.00
77431;BME280;66498;48.564;19.272;2023-07-31T01:34:31;97301.50;;;12.77;100.00
77431;BME280;66498;48.564;19.272;2023-07-31T01:36:57;97298.91;;;12.99;100.00
77431;BME280;66498;48.564;19.272;2023-07-31T01:39:25;97302.59;;;13.20;100.00
77431;BME280;66498;48.564;19.272;2023-07-31T01:41:51;97306.28;;;13.19;100.00
77431;BME280;66498;48.564;19.272;2023-07-31T01:44:16;97303.38;;;12.99;100.00
77431;BME280;66498;48.564;19.272;2023-07-31T01:46:42;97306.81;;;12.83;100.00
77431;BME280;66498;48.564;19.272;2023-07-31T01:49:07;97307.50;;;13.12;100.00
77431;BME280;66498;48.564;19.272;2023-07-31T01:51:33;97299.78;;;13.44;100.00
77431;BME280;66498;48.564;19.272;2023-07-31T01:54:00;97295.78;;;13.63;100.00
77431;BME280;66498;48.564;19.272;2023-07-31T01:56:25;97302.50;;;13.49;100.00
77431;BME280;66498;48.564;19.272;2023-07-31T01:58:51;97294.06;;;13.30;100.00
77431;BME280;66498;48.564;19.272;2023-07-31T02:01:16;97298.13;;;13.21;100.00
77431;BME280;66498;48.564;19.272;2023-07-31T02:03:42;97301.75;;;13.32;100.00
77431;BME280;66498;48.564;19.272;2023-07-31T02:06:07;97312.72;;;13.45;100.00
77431;BME280;66498;48.564;19.272;2023-07-31T02:08:33;97303.25;;;13.28;100.00
77431;BME280;66498;48.564;19.272;2023-07-31T02:10:58;97306.03;;;13.38;100.00
77431;BME280;66498;48.564;19.272;2023-07-31T02:13:24;97298.59;;;13.35;100.00
77431;BME280;66498;48.564;19.272;2023-07-31T02:15:49;97304.19;;;13.38;100.00
77431;BME280;66498;48.564;19.272;2023-07-31T02:18:15;97307.63;;;13.61;100.00
77431;BME280;66498;48.564;19.272;2023-07-31T02:20:41;97309.16;;;13.57;100.00
77431;BME280;66498;48.564;19.272;2023-07-31T02:23:06;97311.00;;;13.56;100.00
77431;BME280;66498;48.564;19.272;2023-07-31T02:25:32;97309.84;;;13.47;100.00
77431;BME280;66498;48.564;19.272;2023-07-31T02:27:57;97304.75;;;13.40;100.00
77431;BME280;66498;48.564;19.272;2023-07-31T02:30:23;97299.94;;;13.37;100.00
77431;BME280;66498;48.564;19.272;2023-07-31T02:32:49;97300.03;;;13.42;100.00
77431;BME280;66498;48.564;19.272;2023-07-31T02:35:14;97305.31;;;13.42;100.00
77431;BME280;66498;48.564;19.272;2023-07-31T02:37:41;97306.88;;;13.43;100.00
77431;BME280;66498;48.564;19.272;2023-07-31T02:40:07;97306.31;;;13.41;100.00
77431;BME280;66498;48.564;19.272;2023-07-31T02:42:33;97301.50;;;13.33;100.00
77431;BME280;66498;48.564;19.272;2023-07-31T02:44:58;97299.16;;;13.37;100.00
77431;BME280;66498;48.564;19.272;2023-07-31T02:47:24;97306.72;;;13.50;100.00
77431;BME280;66498;48.564;19.272;2023-07-31T02:49:49;97302.22;;;13.51;100.00
77431;BME280;66498;48.564;19.272;2023-07-31T02:52:15;97302.53;;;13.54;100.00
77431;BME280;66498;48.564;19.272;2023-07-31T02:54:40;97304.25;;;13.65;100.00
77431;BME280;66498;48.564;19.272;2023-07-31T02:57:06;97305.38;;;13.69;100.00
77431;BME280;66498;48.564;19.272;2023-07-31T02:59:31;97310.75;;;13.80;100.00
77431;BME280;66498;48.564;19.272;2023-07-31T03:01:57;97303.28;;;14.26;100.00
77431;BME280;66498;48.564;19.272;2023-07-31T03:04:23;97302.03;;;14.33;100.00
77431;BME280;66498;48.564;19.272;2023-07-31T03:06:48;97306.53;;;14.33;100.00
77431;BME280;66498;48.564;19.272;2023-07-31T03:09:13;97302.28;;;14.32;100.00
77431;BME280;66498;48.564;19.272;2023-07-31T03:11:39;97303.28;;;14.26;100.00
77431;BME280;66498;48.564;19.272;2023-07-31T03:14:04;97302.88;;;14.07;100.00
77431;BME280;66498;48.564;19.272;2023-07-31T03:16:30;97309.63;;;13.98;100.00
77431;BME280;66498;48.564;19.272;2023-07-31T03:18:55;97312.25;;;13.98;100.00
77431;BME280;66498;48.564;19.272;2023-07-31T03:21:21;97316.16;;;13.90;100.00
77431;BME280;66498;48.564;19.272;2023-07-31T03:23:46;97315.19;;;14.01;100.00
77431;BME280;66498;48.564;19.272;2023-07-31T03:26:12;97330.03;;;14.07;100.00
77431;BME280;66498;48.564;19.272;2023-07-31T03:28:37;97328.88;;;13.98;100.00
77431;BME280;66498;48.564;19.272;2023-07-31T03:31:03;97325.66;;;13.91;100.00
77431;BME280;66498;48.564;19.272;2023-07-31T03:33:28;97322.84;;;13.76;100.00
77431;BME280;66498;48.564;19.272;2023-07-31T03:35:54;97317.19;;;13.67;100.00
77431;BME280;66498;48.564;19.272;2023-07-31T03:38:19;97310.09;;;13.45;100.00
77431;BME280;66498;48.564;19.272;2023-07-31T03:40:45;97298.59;;;13.35;100.00
77431;BME280;66498;48.564;19.272;2023-07-31T03:43:11;97305.88;;;13.28;100.00
77431;BME280;66498;48.564;19.272;2023-07-31T03:45:37;97313.09;;;13.32;100.00
77431;BME280;66498;48.564;19.272;2023-07-31T03:48:03;97320.56;;;13.40;100.00
77431;BME280;66498;48.564;19.272;2023-07-31T03:50:29;97332.22;;;13.44;100.00
77431;BME280;66498;48.564;19.272;2023-07-31T03:52:54;97330.06;;;13.41;100.00
77431;BME280;66498;48.564;19.272;2023-07-31T03:55:20;97332.72;;;13.63;100.00
77431;BME280;66498;48.564;19.272;2023-07-31T03:57:47;97334.69;;;13.73;100.00
77431;BME280;66498;48.564;19.272;2023-07-31T04:00:12;97334.91;;;13.71;100.00
77431;BME280;66498;48.564;19.272;2023-07-31T04:02:38;97334.19;;;13.76;100.00
77431;BME280;66498;48.564;19.272;2023-07-31T04:05:03;97337.38;;;13.78;100.00
77431;BME280;66498;48.564;19.272;2023-07-31T04:07:29;97340.78;;;14.01;100.00
77431;BME280;66498;48.564;19.272;2023-07-31T04:09:55;97335.34;;;14.12;100.00
77431;BME280;66498;48.564;19.272;2023-07-31T04:12:20;97332.41;;;13.82;100.00
77431;BME280;66498;48.564;19.272;2023-07-31T04:14:46;97334.03;;;14.10;100.00
77431;BME280;66498;48.564;19.272;2023-07-31T04:17:11;97340.53;;;14.02;100.00
77431;BME280;66498;48.564;19.272;2023-07-31T04:19:37;97338.38;;;14.21;100.00
77431;BME280;66498;48.564;19.272;2023-07-31T04:22:03;97325.19;;;14.26;100.00
77431;BME280;66498;48.564;19.272;2023-07-31T04:24:29;97324.72;;;14.29;100.00
77431;BME280;66498;48.564;19.272;2023-07-31T04:26:54;97333.72;;;14.33;100.00
77431;BME280;66498;48.564;19.272;2023-07-31T04:29:19;97337.41;;;14.32;100.00
77431;BME280;66498;48.564;19.272;2023-07-31T04:31:45;97334.84;;;14.37;100.00
77431;BME280;66498;48.564;19.272;2023-07-31T04:34:11;97329.84;;;14.41;100.00
77431;BME280;66498;48.564;19.272;2023-07-31T04:36:39;97316.41;;;14.75;100.00
77431;BME280;66498;48.564;19.272;2023-07-31T04:39:04;97319.72;;;14.97;100.00
77431;BME280;66498;48.564;19.272;2023-07-31T04:41:30;97311.47;;;15.26;100.00
77431;BME280;66498;48.564;19.272;2023-07-31T04:43:55;97315.34;;;15.13;100.00
77431;BME280;66498;48.564;19.272;2023-07-31T04:46:21;97315.34;;;15.18;100.00
77431;BME280;66498;48.564;19.272;2023-07-31T04:48:46;97312.03;;;15.33;100.00
77431;BME280;66498;48.564;19.272;2023-07-31T04:51:12;97313.41;;;15.46;100.00
77431;BME280;66498;48.564;19.272;2023-07-31T04:53:37;97312.34;;;15.52;100.00
77431;BME280;66498;48.564;19.272;2023-07-31T04:56:03;97300.03;;;15.68;100.00
77431;BME280;66498;48.564;19.272;2023-07-31T04:58:28;97303.78;;;15.77;100.00
77431;BME280;66498;48.564;19.272;2023-07-31T05:00:54;97310.56;;;15.63;100.00
77431;BME280;66498;48.564;19.272;2023-07-31T05:03:20;97312.06;;;15.48;100.00
77431;BME280;66498;48.564;19.272;2023-07-31T05:05:45;97312.41;;;15.62;100.00
77431;BME280;66498;48.564;19.272;2023-07-31T05:08:11;97312.31;;;15.36;100.00
77431;BME280;66498;48.564;19.272;2023-07-31T05:10:36;97305.31;;;15.68;100.00
77431;BME280;66498;48.564;19.272;2023-07-31T05:13:02;97308.88;;;16.04;100.00
77431;BME280;66498;48.564;19.272;2023-07-31T05:15:28;97305.19;;;16.15;100.00
77431;BME280;66498;48.564;19.272;2023-07-31T05:17:53;97301.72;;;16.20;100.00
77431;BME280;66498;48.564;19.272;2023-07-31T05:20:19;97304.41;;;16.25;100.00
77431;BME280;66498;48.564;19.272;2023-07-31T05:22:45;97307.31;;;16.33;100.00
77431;BME280;66498;48.564;19.272;2023-07-31T05:25:10;97308.91;;;16.14;100.00
77431;BME280;66498;48.564;19.272;2023-07-31T05:27:36;97310.94;;;15.92;100.00
77431;BME280;66498;48.564;19.272;2023-07-31T05:30:01;97311.28;;;16.21;100.00
77431;BME280;66498;48.564;19.272;2023-07-31T05:32:27;97312.34;;;16.35;99.19
77431;BME280;66498;48.564;19.272;2023-07-31T05:34:53;97307.59;;;16.37;98.57
77431;BME280;66498;48.564;19.272;2023-07-31T05:37:19;97308.66;;;16.72;95.73
77431;BME280;66498;48.564;19.272;2023-07-31T05:39:45;97311.31;;;16.87;95.53
77431;BME280;66498;48.564;19.272;2023-07-31T05:42:11;97310.63;;;17.57;91.68
77431;BME280;66498;48.564;19.272;2023-07-31T05:44:36;97309.75;;;17.87;89.36
77431;BME280;66498;48.564;19.272;2023-07-31T05:47:02;97314.84;;;17.63;91.71
77431;BME280;66498;48.564;19.272;2023-07-31T05:49:28;97313.50;;;18.20;88.29
77431;BME280;66498;48.564;19.272;2023-07-31T05:51:53;97312.72;;;18.25;86.95
77431;BME280;66498;48.564;19.272;2023-07-31T05:54:19;97319.34;;;17.78;90.37
77431;BME280;66498;48.564;19.272;2023-07-31T05:56:44;97310.97;;;17.40;92.90
77431;BME280;66498;48.564;19.272;2023-07-31T05:59:12;97302.81;;;17.00;96.39
77431;BME280;66498;48.564;19.272;2023-07-31T06:01:38;97295.44;;;16.82;96.72
77431;BME280;66498;48.564;19.272;2023-07-31T06:04:04;97303.75;;;17.50;94.27
77431;BME280;66498;48.564;19.272;2023-07-31T06:06:29;97300.94;;;17.91;92.50
77431;BME280;66498;48.564;19.272;2023-07-31T06:08:55;97304.44;;;17.82;91.93
77431;BME280;66498;48.564;19.272;2023-07-31T06:11:21;97306.59;;;18.24;89.99
77431;BME280;66498;48.564;19.272;2023-07-31T06:13:47;97305.31;;;18.56;89.36
77431;BME280;66498;48.564;19.272;2023-07-31T06:16:14;97302.75;;;18.80;87.44
77431;BME280;66498;48.564;19.272;2023-07-31T06:18:40;97307.91;;;18.95;85.82
77431;BME280;66498;48.564;19.272;2023-07-31T06:21:06;97310.56;;;19.24;84.00
77431;BME280;66498;48.564;19.272;2023-07-31T06:23:31;97304.13;;;19.01;83.68
77431;BME280;66498;48.564;19.272;2023-07-31T06:25:57;97305.16;;;18.71;85.58
77431;BME280;66498;48.564;19.272;2023-07-31T06:28:27;97303.50;;;18.85;84.75
77431;BME280;66498;48.564;19.272;2023-07-31T06:30:54;97304.63;;;18.40;82.19
77431;BME280;66498;48.564;19.272;2023-07-31T06:33:20;97305.31;;;18.56;81.37
77431;BME280;66498;48.564;19.272;2023-07-31T06:35:47;97297.31;;;18.90;79.60
77431;BME280;66498;48.564;19.272;2023-07-31T06:38:12;97290.56;;;19.03;77.86
77431;BME280;66498;48.564;19.272;2023-07-31T06:40:38;97288.28;;;19.39;75.55
77431;BME280;66498;48.564;19.272;2023-07-31T06:43:03;97298.44;;;19.61;75.26
77431;BME280;66498;48.564;19.272;2023-07-31T06:45:36;97287.59;;;19.76;75.05
77431;BME280;66498;48.564;19.272;2023-07-31T06:48:02;97292.72;;;19.49;74.01
77431;BME280;66498;48.564;19.272;2023-07-31T06:50:30;97293.34;;;19.41;73.69
77431;BME280;66498;48.564;19.272;2023-07-31T06:52:55;97298.47;;;19.56;73.11
77431;BME280;66498;48.564;19.272;2023-07-31T06:55:21;97301.03;;;19.18;72.07
77431;BME280;66498;48.564;19.272;2023-07-31T06:57:48;97302.13;;;19.17;73.92
77431;BME280;66498;48.564;19.272;2023-07-31T07:00:15;97307.97;;;19.19;73.00
77431;BME280;66498;48.564;19.272;2023-07-31T07:02:41;97306.19;;;19.33;72.92
77431;BME280;66498;48.564;19.272;2023-07-31T07:05:07;97313.66;;;19.31;71.65
77431;BME280;66498;48.564;19.272;2023-07-31T07:07:32;97314.00;;;19.25;72.32
77431;BME280;66498;48.564;19.272;2023-07-31T07:09:58;97315.72;;;19.40;72.64
77431;BME280;66498;48.564;19.272;2023-07-31T07:12:25;97320.41;;;19.48;71.34
77431;BME280;66498;48.564;19.272;2023-07-31T07:14:50;97316.09;;;19.52;72.01
77431;BME280;66498;48.564;19.272;2023-07-31T07:17:18;97311.44;;;19.68;70.75
77431;BME280;66498;48.564;19.272;2023-07-31T07:19:44;97306.78;;;20.16;68.70
77431;BME280;66498;48.564;19.272;2023-07-31T07:22:11;97311.22;;;20.21;68.48
77431;BME280;66498;48.564;19.272;2023-07-31T07:24:36;97308.78;;;19.87;68.77
77431;BME280;66498;48.564;19.272;2023-07-31T07:27:02;97307.63;;;20.49;69.12
77431;BME280;66498;48.564;19.272;2023-07-31T07:29:28;97312.19;;;20.30;66.95
77431;BME280;66498;48.564;19.272;2023-07-31T07:31:53;97312.44;;;20.47;67.62
77431;BME280;66498;48.564;19.272;2023-07-31T07:34:19;97310.16;;;20.92;66.27
77431;BME280;66498;48.564;19.272;2023-07-31T07:36:44;97307.31;;;21.16;67.79
77431;BME280;66498;48.564;19.272;2023-07-31T07:39:10;97301.28;;;21.11;64.19
77431;BME280;66498;48.564;19.272;2023-07-31T07:41:36;97304.16;;;21.28;64.56
77431;BME280;66498;48.564;19.272;2023-07-31T07:44:02;97301.91;;;21.49;63.17
77431;BME280;66498;48.564;19.272;2023-07-31T07:46:28;97296.34;;;21.32;62.33
77431;BME280;66498;48.564;19.272;2023-07-31T07:48:56;97299.72;;;21.10;64.08
77431;BME280;66498;48.564;19.272;2023-07-31T07:51:21;97301.44;;;21.47;63.57
77431;BME280;66498;48.564;19.272;2023-07-31T07:53:47;97301.25;;;21.93;62.10
77431;BME280;66498;48.564;19.272;2023-07-31T07:56:13;97304.72;;;21.94;60.63
77431;BME280;66498;48.564;19.272;2023-07-31T07:58:38;97298.13;;;22.28;61.03
77431;BME280;66498;48.564;19.272;2023-07-31T08:01:04;97298.56;;;22.07;59.67
77431;BME280;66498;48.564;19.272;2023-07-31T08:03:29;97314.97;;;21.78;60.16
77431;BME280;66498;48.564;19.272;2023-07-31T08:06:01;97315.38;;;21.71;60.79
77431;BME280;66498;48.564;19.272;2023-07-31T08:08:28;97311.81;;;21.35;62.09
77431;BME280;66498;48.564;19.272;2023-07-31T08:10:53;97314.22;;;20.71;63.21
77431;BME280;66498;48.564;19.272;2023-07-31T08:13:19;97314.94;;;20.76;63.92
77431;BME280;66498;48.564;19.272;2023-07-31T08:15:47;97317.22;;;20.69;64.03
77431;BME280;66498;48.564;19.272;2023-07-31T08:18:12;97318.31;;;20.82;64.00
77431;BME280;66498;48.564;19.272;2023-07-31T08:20:38;97312.38;;;20.85;63.47
77431;BME280;66498;48.564;19.272;2023-07-31T08:23:04;97317.91;;;20.75;65.32
77431;BME280;66498;48.564;19.272;2023-07-31T08:25:30;97316.53;;;20.77;65.10
77431;BME280;66498;48.564;19.272;2023-07-31T08:27:55;97317.31;;;20.78;65.40
77431;BME280;66498;48.564;19.272;2023-07-31T08:30:21;97317.06;;;20.61;64.74
77431;BME280;66498;48.564;19.272;2023-07-31T08:32:47;97318.03;;;20.84;63.36
77431;BME280;66498;48.564;19.272;2023-07-31T08:35:12;97324.09;;;20.89;64.12
77431;BME280;66498;48.564;19.272;2023-07-31T08:37:38;97317.44;;;20.87;64.06
77431;BME280;66498;48.564;19.272;2023-07-31T08:40:05;97318.16;;;20.92;63.83
77431;BME280;66498;48.564;19.272;2023-07-31T08:42:31;97324.72;;;21.14;62.57
77431;BME280;66498;48.564;19.272;2023-07-31T08:44:58;97318.31;;;21.29;62.28
77431;BME280;66498;48.564;19.272;2023-07-31T08:47:27;97328.97;;;21.29;61.87
77431;BME280;66498;48.564;19.272;2023-07-31T08:49:54;97322.88;;;20.95;61.88
77431;BME280;66498;48.564;19.272;2023-07-31T08:52:23;97321.84;;;21.10;62.35
77431;BME280;66498;48.564;19.272;2023-07-31T08:54:49;97319.47;;;21.22;63.20
77431;BME280;66498;48.564;19.272;2023-07-31T08:57:14;97323.19;;;20.94;64.18
77431;BME280;66498;48.564;19.272;2023-07-31T08:59:41;97322.63;;;21.11;62.31
77431;BME280;66498;48.564;19.272;2023-07-31T09:02:08;97326.78;;;20.70;63.84
77431;BME280;66498;48.564;19.272;2023-07-31T09:04:34;97324.28;;;20.60;63.66
77431;BME280;66498;48.564;19.272;2023-07-31T09:07:02;97316.69;;;21.00;63.51
77431;BME280;66498;48.564;19.272;2023-07-31T09:09:30;97319.28;;;21.33;61.35
77431;BME280;66498;48.564;19.272;2023-07-31T09:11:57;97325.94;;;21.63;61.82
77431;BME280;66498;48.564;19.272;2023-07-31T09:14:25;97320.19;;;21.83;60.27
77431;BME280;66498;48.564;19.272;2023-07-31T09:16:52;97322.25;;;22.00;60.31
77431;BME280;66498;48.564;19.272;2023-07-31T09:19:35;97317.88;;;22.04;58.95
77431;BME280;66498;48.564;19.272;2023-07-31T09:22:03;97320.75;;;21.94;59.07
77431;BME280;66498;48.564;19.272;2023-07-31T09:24:31;97319.81;;;22.62;58.53
77431;BME280;66498;48.564;19.272;2023-07-31T09:26:58;97318.41;;;23.19;54.82
77431;BME280;66498;48.564;19.272;2023-07-31T09:29:25;97315.09;;;23.61;55.96
77431;BME280;66498;48.564;19.272;2023-07-31T09:31:52;97314.72;;;23.94;55.01
77431;BME280;66498;48.564;19.272;2023-07-31T09:34:18;97314.50;;;23.65;54.49
77431;BME280;66498;48.564;19.272;2023-07-31T09:36:49;97302.75;;;24.35;52.86
77431;BME280;66498;48.564;19.272;2023-07-31T09:39:16;97308.63;;;24.63;52.48
77431;BME280;66498;48.564;19.272;2023-07-31T09:41:44;97300.41;;;24.34;51.22
77431;BME280;66498;48.564;19.272;2023-07-31T09:44:10;97299.59;;;23.90;53.58
77431;BME280;66498;48.564;19.272;2023-07-31T09:46:36;97305.88;;;23.76;54.51
77431;BME280;66498;48.564;19.272;2023-07-31T09:49:13;97296.78;;;23.46;55.31
77431;BME280;66498;48.564;19.272;2023-07-31T09:51:41;97297.88;;;23.05;57.02
77431;BME280;66498;48.564;19.272;2023-07-31T09:54:15;97300.69;;;22.78;56.20
77431;BME280;66498;48.564;19.272;2023-07-31T09:56:46;97295.91;;;22.66;56.43
77431;BME280;66498;48.564;19.272;2023-07-31T09:59:16;97291.72;;;22.82;56.76
77431;BME280;66498;48.564;19.272;2023-07-31T10:01:43;97297.16;;;23.71;56.36
77431;BME280;66498;48.564;19.272;2023-07-31T10:04:10;97299.91;;;23.88;54.52
77431;BME280;66498;48.564;19.272;2023-07-31T10:06:37;97296.59;;;24.17;53.35
77431;BME280;66498;48.564;19.272;2023-07-31T10:09:06;97291.72;;;23.93;53.67
77431;BME280;66498;48.564;19.272;2023-07-31T10:11:40;97283.34;;;24.03;53.88
77431;BME280;66498;48.564;19.272;2023-07-31T10:14:07;97285.75;;;24.05;52.55
77431;BME280;66498;48.564;19.272;2023-07-31T10:16:37;97283.34;;;24.21;52.96
77431;BME280;66498;48.564;19.272;2023-07-31T10:19:05;97287.13;;;24.37;51.69
77431;BME280;66498;48.564;19.272;2023-07-31T10:21:33;97280.38;;;24.40;52.58
77431;BME280;66498;48.564;19.272;2023-07-31T10:24:04;97285.59;;;24.45;53.28
77431;BME280;66498;48.564;19.272;2023-07-31T10:26:31;97284.78;;;24.27;52.68
77431;BME280;66498;48.564;19.272;2023-07-31T10:28:58;97269.69;;;24.95;51.25
77431;BME280;66498;48.564;19.272;2023-07-31T10:31:27;97268.19;;;24.77;51.32
77431;BME280;66498;48.564;19.272;2023-07-31T10:33:54;97274.94;;;25.30;50.92
77431;BME280;66498;48.564;19.272;2023-07-31T10:36:21;97269.34;;;25.06;50.63
77431;BME280;66498;48.564;19.272;2023-07-31T10:38:49;97272.31;;;25.21;49.33
77431;BME280;66498;48.564;19.272;2023-07-31T10:41:16;97268.56;;;24.96;48.59
77431;BME280;66498;48.564;19.272;2023-07-31T10:43:42;97268.81;;;24.65;50.69
77431;BME280;66498;48.564;19.272;2023-07-31T10:46:08;97258.94;;;24.95;49.29
77431;BME280;66498;48.564;19.272;2023-07-31T10:48:39;97255.78;;;25.40;47.98
77431;BME280;66498;48.564;19.272;2023-07-31T10:51:11;97263.63;;;25.16;49.31
77431;BME280;66498;48.564;19.272;2023-07-31T10:53:37;97261.47;;;25.39;49.26
77431;BME280;66498;48.564;19.272;2023-07-31T10:56:07;97251.72;;;25.34;48.93
77431;BME280;66498;48.564;19.272;2023-07-31T10:58:35;97257.41;;;25.92;49.57
77431;BME280;66498;48.564;19.272;2023-07-31T11:01:03;97253.91;;;26.12;47.51
77431;BME280;66498;48.564;19.272;2023-07-31T11:03:46;97249.59;;;26.32;46.01
77431;BME280;66498;48.564;19.272;2023-07-31T11:06:13;97259.31;;;26.79;45.43
77431;BME280;66498;48.564;19.272;2023-07-31T11:08:50;97252.88;;;26.38;46.28
77431;BME280;66498;48.564;19.272;2023-07-31T11:11:17;97252.50;;;26.27;45.64
77431;BME280;66498;48.564;19.272;2023-07-31T11:13:45;97257.81;;;25.73;46.63
77431;BME280;66498;48.564;19.272;2023-07-31T11:16:14;97242.09;;;26.05;46.13
77431;BME280;66498;48.564;19.272;2023-07-31T11:18:43;97236.53;;;26.10;46.36
77431;BME280;66498;48.564;19.272;2023-07-31T11:21:16;97232.78;;;26.23;43.83
77431;BME280;66498;48.564;19.272;2023-07-31T11:23:50;97240.31;;;25.88;43.46
77431;BME280;66498;48.564;19.272;2023-07-31T11:26:17;97240.59;;;26.16;44.71
77431;BME280;66498;48.564;19.272;2023-07-31T11:28:46;97239.22;;;26.64;43.55
77431;BME280;66498;48.564;19.272;2023-07-31T11:31:12;97229.59;;;26.87;43.74
77431;BME280;66498;48.564;19.272;2023-07-31T11:33:38;97227.81;;;26.92;42.94
77431;BME280;66498;48.564;19.272;2023-07-31T11:36:03;97235.34;;;26.53;43.50
77431;BME280;66498;48.564;19.272;2023-07-31T11:38:31;97231.72;;;25.94;44.45
77431;BME280;66498;48.564;19.272;2023-07-31T11:40:58;97234.72;;;26.35;45.98
77431;BME280;66498;48.564;19.272;2023-07-31T11:43:25;97233.16;;;26.67;43.44
77431;BME280;66498;48.564;19.272;2023-07-31T11:45:53;97231.41;;;27.08;42.70
77431;BME280;66498;48.564;19.272;2023-07-31T11:48:21;97232.84;;;27.67;42.47
77431;BME280;66498;48.564;19.272;2023-07-31T11:50:49;97229.84;;;26.95;42.62
77431;BME280;66498;48.564;19.272;2023-07-31T11:53:17;97231.75;;;26.94;43.18
77431;BME280;66498;48.564;19.272;2023-07-31T11:55:45;97233.84;;;26.43;42.69
77431;BME280;66498;48.564;19.272;2023-07-31T11:58:11;97224.16;;;26.63;42.17
77431;BME280;66498;48.564;19.272;2023-07-31T12:00:38;97221.06;;;26.40;41.05
77431;BME280;66498;48.564;19.272;2023-07-31T12:03:04;97218.75;;;25.97;43.62
77431;BME280;66498;48.564;19.272;2023-07-31T12:05:30;97219.69;;;26.34;43.30
77431;BME280;66498;48.564;19.272;2023-07-31T12:07:55;97221.63;;;26.46;39.83
77431;BME280;66498;48.564;19.272;2023-07-31T12:10:33;97221.66;;;26.25;43.06
77431;BME280;66498;48.564;19.272;2023-07-31T12:13:22;97219.94;;;26.41;41.89
77431;BME280;66498;48.564;19.272;2023-07-31T12:15:48;97209.94;;;26.75;39.47
77431;BME280;66498;48.564;19.272;2023-07-31T12:18:18;97213.22;;;26.93;42.39
77431;BME280;66498;48.564;19.272;2023-07-31T12:20:49;97204.59;;;26.87;39.49
77431;BME280;66498;48.564;19.272;2023-07-31T12:23:20;97197.41;;;26.91;39.78
77431;BME280;66498;48.564;19.272;2023-07-31T12:26:09;97197.84;;;27.42;41.51
77431;BME280;66498;48.564;19.272;2023-07-31T12:28:41;97197.38;;;27.03;38.71
77431;BME280;66498;48.564;19.272;2023-07-31T12:31:12;97189.47;;;27.31;40.03
77431;BME280;66498;48.564;19.272;2023-07-31T12:33:40;97193.81;;;27.24;39.54
77431;BME280;66498;48.564;19.272;2023-07-31T12:36:17;97192.88;;;27.56;39.36
77431;BME280;66498;48.564;19.272;2023-07-31T12:38:44;97184.56;;;27.62;38.21
77431;BME280;66498;48.564;19.272;2023-07-31T12:41:10;97186.97;;;27.39;39.12
77431;BME280;66498;48.564;19.272;2023-07-31T12:43:40;97177.78;;;28.08;39.12
77431;BME280;66498;48.564;19.272;2023-07-31T12:46:07;97174.59;;;28.18;38.46
77431;BME280;66498;48.564;19.272;2023-07-31T12:48:36;97172.19;;;27.60;37.85